PWSweather.com
Personal Weather Stations
Station Observations
PLIWOJE121
HaczowPL 36-213

HaczowPL 36-213

Lat: 49.66759829999999, Lon: 21.890613799999983

Elevation: 9

Station Type: WH1080

Latest ConditionsUpdated 7:30:00 PM GMT+01:01 Saturday, Dec 7, 2019
Currently Today's Max Today's Min Today's Average
Temperature 34.3°F1.3°C 36.3°F2.4°C 25.5°F-3.6°C 30.5°F-0.8°C
Dew Point 23.8°F-4.6°C 23.8°F-4.6°C 15.4°F-9.2°C 20.0°F-6.7°C
Winds 1.6 mph SSE2.6 kmh SSE 14.5 mph -23.3 kmh - - 7.0 mph 11.3 kmh
Wind Gusts 8.3 mph13.4 kmh 22.8 mph36.7 kmh - -
Humidity 65% 68% 54% 65%
Pressure 29.75 in1007.5 mb 29.84 in1010.5 mb 29.70 in1005.8 mb -
Hour Temp Dew Point Humidity Winds Wind Gusts Pressure Precip Precip Rate Daily Precip Total
07:30 PM 34.3°F1.3°C 23.8°F-4.6°C 65% 1.6 mph SSE2.6 kmh SSE 8.3 mph13.4 kmh 29.75 in1007.5 mb 0.00 in0.0 mm 0.00 in0.0 mm 0.00 in0.0 mm
07:25 PM 34.2°F1.2°C 23.6°F-4.7°C 65% 3.8 mph SSE6.1 kmh SSE 8.3 mph13.4 kmh 29.75 in1007.5 mb 0.00 in0.0 mm 0.00 in0.0 mm 0.00 in0.0 mm
07:20 PM 34.2°F1.2°C 23.6°F-4.7°C 65% 2.2 mph SW3.5 kmh SW 5.4 mph8.7 kmh 29.75 in1007.5 mb 0.00 in0.0 mm 0.00 in0.0 mm 0.00 in0.0 mm
07:15 PM 34.3°F1.3°C 23.8°F-4.6°C 65% 2.2 mph SSW3.5 kmh SSW 6.0 mph9.7 kmh 29.75 in1007.5 mb 0.00 in0.0 mm 0.00 in0.0 mm 0.00 in0.0 mm
07:10 PM 34.3°F1.3°C 23.8°F-4.6°C 65% 3.8 mph SSW6.1 kmh SSW 7.6 mph12.2 kmh 29.75 in1007.5 mb 0.00 in0.0 mm 0.00 in0.0 mm 0.00 in0.0 mm
07:05 PM 34.2°F1.2°C 23.6°F-4.7°C 65% 2.2 mph S3.5 kmh S 7.6 mph12.2 kmh 29.75 in1007.5 mb 0.00 in0.0 mm 0.00 in0.0 mm 0.00 in0.0 mm
07:00 PM 34.2°F1.2°C 23.6°F-4.7°C 65% Calm Calm 5.4 mph8.7 kmh 29.74 in1007.1 mb 0.00 in0.0 mm 0.00 in0.0 mm 0.00 in0.0 mm
06:55 PM 34.2°F1.2°C 23.6°F-4.7°C 65% 1.6 mph SSE2.6 kmh SSE 9.2 mph14.8 kmh 29.74 in1007.1 mb 0.00 in0.0 mm 0.00 in0.0 mm 0.00 in0.0 mm
06:50 PM 34.2°F1.2°C 23.6°F-4.7°C 65% 5.4 mph SSE8.7 kmh SSE 13.0 mph20.9 kmh 29.74 in1007.1 mb 0.00 in0.0 mm 0.00 in0.0 mm 0.00 in0.0 mm
06:45 PM 34.2°F1.2°C 23.6°F-4.7°C 65% 3.8 mph SE6.1 kmh SE 13.6 mph21.9 kmh 29.74 in1007.1 mb 0.00 in0.0 mm 0.00 in0.0 mm 0.00 in0.0 mm
06:40 PM 34.0°F1.1°C 23.4°F-4.8°C 65% 9.8 mph SE15.8 kmh SE 13.6 mph21.9 kmh 29.74 in1007.1 mb 0.00 in0.0 mm 0.00 in0.0 mm 0.00 in0.0 mm
06:35 PM 34.0°F1.1°C 23.8°F-4.6°C 66% 6.0 mph SE9.7 kmh SE 13.0 mph20.9 kmh 29.73 in1006.8 mb 0.00 in0.0 mm 0.00 in0.0 mm 0.00 in0.0 mm
06:30 PM 33.8°F1.0°C 23.6°F-4.7°C 66% 3.1 mph SE5.0 kmh SE 9.2 mph14.8 kmh 29.74 in1007.1 mb 0.00 in0.0 mm 0.00 in0.0 mm 0.00 in0.0 mm
06:25 PM 33.8°F1.0°C 23.6°F-4.7°C 66% 3.8 mph SE6.1 kmh SE 9.2 mph14.8 kmh 29.73 in1006.8 mb 0.00 in0.0 mm 0.00 in0.0 mm 0.00 in0.0 mm
06:20 PM 33.8°F1.0°C 23.6°F-4.7°C 66% 3.8 mph SE6.1 kmh SE 9.2 mph14.8 kmh 29.73 in1006.8 mb 0.00 in0.0 mm 0.00 in0.0 mm 0.00 in0.0 mm
06:15 PM 33.4°F0.8°C 23.7°F-4.6°C 67% 6.0 mph SE9.7 kmh SE 9.8 mph15.8 kmh 29.72 in1006.4 mb 0.00 in0.0 mm 0.00 in0.0 mm 0.00 in0.0 mm
06:10 PM 33.4°F0.8°C 23.7°F-4.6°C 67% 3.8 mph SE6.1 kmh SE 9.8 mph15.8 kmh 29.73 in1006.8 mb 0.00 in0.0 mm 0.00 in0.0 mm 0.00 in0.0 mm
06:05 PM 33.3°F0.7°C 23.5°F-4.7°C 67% 6.0 mph SE9.7 kmh SE 9.2 mph14.8 kmh 29.73 in1006.8 mb 0.00 in0.0 mm 0.00 in0.0 mm 0.00 in0.0 mm
06:00 PM 33.3°F0.7°C 23.5°F-4.7°C 67% 4.5 mph SE7.2 kmh SE 8.3 mph13.4 kmh 29.73 in1006.8 mb 0.00 in0.0 mm 0.00 in0.0 mm 0.00 in0.0 mm
05:55 PM 33.3°F0.7°C 23.5°F-4.7°C 67% 5.4 mph SE8.7 kmh SE 6.9 mph11.1 kmh 29.73 in1006.8 mb 0.00 in0.0 mm 0.00 in0.0 mm 0.00 in0.0 mm
05:50 PM 33.3°F0.7°C 23.8°F-4.6°C 68% 4.5 mph SE7.2 kmh SE 6.9 mph11.1 kmh 29.73 in1006.8 mb 0.00 in0.0 mm 0.00 in0.0 mm 0.00 in0.0 mm
05:45 PM 33.3°F0.7°C 23.8°F-4.6°C 68% 3.1 mph SE5.0 kmh SE 8.3 mph13.4 kmh 29.72 in1006.4 mb 0.00 in0.0 mm 0.00 in0.0 mm 0.00 in0.0 mm
05:40 PM 33.3°F0.7°C 23.8°F-4.6°C 68% 3.8 mph SE6.1 kmh SE 8.3 mph13.4 kmh 29.73 in1006.8 mb 0.00 in0.0 mm 0.00 in0.0 mm 0.00 in0.0 mm
05:35 PM 33.3°F0.7°C 23.8°F-4.6°C 68% 5.4 mph ESE8.7 kmh ESE 9.2 mph14.8 kmh 29.73 in1006.8 mb 0.00 in0.0 mm 0.00 in0.0 mm 0.00 in0.0 mm
05:30 PM 33.3°F0.7°C 23.5°F-4.7°C 67% 6.9 mph ESE11.1 kmh ESE 9.2 mph14.8 kmh 29.73 in1006.8 mb 0.00 in0.0 mm 0.00 in0.0 mm 0.00 in0.0 mm
05:25 PM 33.3°F0.7°C 23.8°F-4.6°C 68% 5.4 mph ESE8.7 kmh ESE 9.2 mph14.8 kmh 29.73 in1006.8 mb 0.00 in0.0 mm 0.00 in0.0 mm 0.00 in0.0 mm
05:20 PM 33.3°F0.7°C 23.8°F-4.6°C 68% 4.5 mph E7.2 kmh E 6.9 mph11.1 kmh 29.73 in1006.8 mb 0.00 in0.0 mm 0.00 in0.0 mm 0.00 in0.0 mm
05:15 PM 33.3°F0.7°C 23.8°F-4.6°C 68% 4.5 mph E7.2 kmh E 6.0 mph9.7 kmh 29.73 in1006.8 mb 0.00 in0.0 mm 0.00 in0.0 mm 0.00 in0.0 mm
05:10 PM 33.1°F0.6°C 23.7°F-4.6°C 68% 4.5 mph E7.2 kmh E 6.0 mph9.7 kmh 29.72 in1006.4 mb 0.00 in0.0 mm 0.00 in0.0 mm 0.00 in0.0 mm
05:05 PM 33.1°F0.6°C 23.7°F-4.6°C 68% 3.1 mph ESE5.0 kmh ESE 5.4 mph8.7 kmh 29.72 in1006.4 mb 0.00 in0.0 mm 0.00 in0.0 mm 0.00 in0.0 mm
05:00 PM 32.9°F0.5°C 23.5°F-4.7°C 68% 3.8 mph SE6.1 kmh SE 6.9 mph11.1 kmh 29.73 in1006.8 mb 0.00 in0.0 mm 0.00 in0.0 mm 0.00 in0.0 mm
04:55 PM 32.9°F0.5°C 23.5°F-4.7°C 68% 4.5 mph SE7.2 kmh SE 6.9 mph11.1 kmh 29.72 in1006.4 mb 0.00 in0.0 mm 0.00 in0.0 mm 0.00 in0.0 mm
04:50 PM 32.9°F0.5°C 23.1°F-4.9°C 67% 3.1 mph SE5.0 kmh SE 6.9 mph11.1 kmh 29.72 in1006.4 mb 0.00 in0.0 mm 0.00 in0.0 mm 0.00 in0.0 mm
04:45 PM 32.7°F0.4°C 23.0°F-5.0°C 67% 3.1 mph SE5.0 kmh SE 6.9 mph11.1 kmh 29.72 in1006.4 mb 0.00 in0.0 mm 0.00 in0.0 mm 0.00 in0.0 mm
04:40 PM 32.7°F0.4°C 23.0°F-5.0°C 67% 3.1 mph ESE5.0 kmh ESE 6.9 mph11.1 kmh 29.72 in1006.4 mb 0.00 in0.0 mm 0.00 in0.0 mm 0.00 in0.0 mm
04:35 PM 32.9°F0.5°C 23.1°F-4.9°C 67% 5.4 mph SE8.7 kmh SE 10.7 mph17.2 kmh 29.72 in1006.4 mb 0.00 in0.0 mm 0.00 in0.0 mm 0.00 in0.0 mm
04:30 PM 32.9°F0.5°C 23.1°F-4.9°C 67% 4.5 mph SE7.2 kmh SE 10.7 mph17.2 kmh 29.71 in1006.1 mb 0.00 in0.0 mm 0.00 in0.0 mm 0.00 in0.0 mm
04:25 PM 32.7°F0.4°C 23.0°F-5.0°C 67% 4.5 mph SE7.2 kmh SE 10.7 mph17.2 kmh 29.71 in1006.1 mb 0.00 in0.0 mm 0.00 in0.0 mm 0.00 in0.0 mm
04:20 PM 32.5°F0.3°C 22.8°F-5.1°C 67% 3.1 mph SE5.0 kmh SE 10.7 mph17.2 kmh 29.72 in1006.4 mb 0.00 in0.0 mm 0.00 in0.0 mm 0.00 in0.0 mm
04:15 PM 32.7°F0.4°C 23.0°F-5.0°C 67% 3.8 mph SE6.1 kmh SE 9.2 mph14.8 kmh 29.72 in1006.4 mb 0.00 in0.0 mm 0.00 in0.0 mm 0.00 in0.0 mm
04:10 PM 32.9°F0.5°C 23.1°F-4.9°C 67% 2.2 mph SSE3.5 kmh SSE 9.2 mph14.8 kmh 29.72 in1006.4 mb 0.00 in0.0 mm 0.00 in0.0 mm 0.00 in0.0 mm
04:05 PM 32.9°F0.5°C 23.1°F-4.9°C 67% 5.4 mph SE8.7 kmh SE 9.2 mph14.8 kmh 29.72 in1006.4 mb 0.00 in0.0 mm 0.00 in0.0 mm 0.00 in0.0 mm
04:00 PM 32.9°F0.5°C 22.8°F-5.1°C 66% 1.6 mph SE2.6 kmh SE 9.2 mph14.8 kmh 29.72 in1006.4 mb 0.00 in0.0 mm 0.00 in0.0 mm 0.00 in0.0 mm
03:55 PM 33.1°F0.6°C 22.9°F-5.1°C 66% 3.1 mph SE5.0 kmh SE 9.2 mph14.8 kmh 29.72 in1006.4 mb 0.00 in0.0 mm 0.00 in0.0 mm 0.00 in0.0 mm
03:50 PM 33.1°F0.6°C 22.9°F-5.1°C 66% 5.4 mph SE8.7 kmh SE 12.1 mph19.5 kmh 29.72 in1006.4 mb 0.00 in0.0 mm 0.00 in0.0 mm 0.00 in0.0 mm
03:45 PM 33.1°F0.6°C 22.9°F-5.1°C 66% 3.8 mph SE6.1 kmh SE 12.1 mph19.5 kmh 29.72 in1006.4 mb 0.00 in0.0 mm 0.00 in0.0 mm 0.00 in0.0 mm
03:40 PM 33.3°F0.7°C 23.1°F-4.9°C 66% 7.6 mph SE12.2 kmh SE 12.1 mph19.5 kmh 29.71 in1006.1 mb 0.00 in0.0 mm 0.00 in0.0 mm 0.00 in0.0 mm
03:35 PM 33.3°F0.7°C 22.8°F-5.1°C 65% 5.4 mph SSE8.7 kmh SSE 12.1 mph19.5 kmh 29.72 in1006.4 mb 0.00 in0.0 mm 0.00 in0.0 mm 0.00 in0.0 mm
03:30 PM 33.4°F0.8°C 22.9°F-5.1°C 65% 5.4 mph SSE8.7 kmh SSE 12.1 mph19.5 kmh 29.72 in1006.4 mb 0.00 in0.0 mm 0.00 in0.0 mm 0.00 in0.0 mm
03:25 PM 33.8°F1.0°C 22.9°F-5.1°C 64% 8.3 mph SE13.4 kmh SE 12.1 mph19.5 kmh 29.71 in1006.1 mb 0.00 in0.0 mm 0.00 in0.0 mm 0.00 in0.0 mm
03:20 PM 34.2°F1.2°C 23.6°F-4.7°C 65% 6.0 mph SE9.7 kmh SE 9.2 mph14.8 kmh 29.72 in1006.4 mb 0.00 in0.0 mm 0.00 in0.0 mm 0.00 in0.0 mm
03:15 PM 34.2°F1.2°C 23.6°F-4.7°C 65% 4.5 mph SSE7.2 kmh SSE 9.2 mph14.8 kmh 29.72 in1006.4 mb 0.00 in0.0 mm 0.00 in0.0 mm 0.00 in0.0 mm
03:10 PM 34.2°F1.2°C 23.6°F-4.7°C 65% 6.0 mph S9.7 kmh S 12.1 mph19.5 kmh 29.71 in1006.1 mb 0.00 in0.0 mm 0.00 in0.0 mm 0.00 in0.0 mm
03:05 PM 34.2°F1.2°C 23.6°F-4.7°C 65% 2.2 mph SSW3.5 kmh SSW 12.1 mph19.5 kmh 29.72 in1006.4 mb 0.00 in0.0 mm 0.00 in0.0 mm 0.00 in0.0 mm
03:00 PM 34.2°F1.2°C 23.6°F-4.7°C 65% 4.5 mph SSW7.2 kmh SSW 12.1 mph19.5 kmh 29.71 in1006.1 mb 0.00 in0.0 mm 0.00 in0.0 mm 0.00 in0.0 mm
02:55 PM 34.2°F1.2°C 23.6°F-4.7°C 65% 6.0 mph SSW9.7 kmh SSW 16.8 mph27.0 kmh 29.72 in1006.4 mb 0.00 in0.0 mm 0.00 in0.0 mm 0.00 in0.0 mm
02:50 PM 34.0°F1.1°C 23.4°F-4.8°C 65% 9.2 mph S14.8 kmh S 17.4 mph28.0 kmh 29.72 in1006.4 mb 0.00 in0.0 mm 0.00 in0.0 mm 0.00 in0.0 mm
02:45 PM 33.6°F0.9°C 23.5°F-4.7°C 66% 9.2 mph SSE14.8 kmh SSE 17.4 mph28.0 kmh 29.71 in1006.1 mb 0.00 in0.0 mm 0.00 in0.0 mm 0.00 in0.0 mm
02:40 PM 33.4°F0.8°C 23.3°F-4.8°C 66% 7.6 mph SE12.2 kmh SE 11.4 mph18.3 kmh 29.71 in1006.1 mb 0.00 in0.0 mm 0.00 in0.0 mm 0.00 in0.0 mm
02:35 PM 33.3°F0.7°C 23.1°F-4.9°C 66% 6.9 mph SSE11.1 kmh SSE 10.7 mph17.2 kmh 29.70 in1005.8 mb 0.00 in0.0 mm 0.00 in0.0 mm 0.00 in0.0 mm
02:30 PM 33.3°F0.7°C 23.5°F-4.7°C 67% 6.0 mph SSE9.7 kmh SSE 10.7 mph17.2 kmh 29.71 in1006.1 mb 0.00 in0.0 mm 0.00 in0.0 mm 0.00 in0.0 mm
02:25 PM 33.1°F0.6°C 23.3°F-4.8°C 67% 4.5 mph SSE7.2 kmh SSE 11.4 mph18.3 kmh 29.70 in1005.8 mb 0.00 in0.0 mm 0.00 in0.0 mm 0.00 in0.0 mm
02:20 PM 32.9°F0.5°C 23.1°F-4.9°C 67% 3.1 mph SE5.0 kmh SE 14.5 mph23.3 kmh 29.71 in1006.1 mb 0.00 in0.0 mm 0.00 in0.0 mm 0.00 in0.0 mm
02:15 PM 32.9°F0.5°C 23.1°F-4.9°C 67% 5.4 mph SE8.7 kmh SE 14.5 mph23.3 kmh 29.71 in1006.1 mb 0.00 in0.0 mm 0.00 in0.0 mm 0.00 in0.0 mm
02:10 PM 32.7°F0.4°C 23.0°F-5.0°C 67% 9.2 mph SE14.8 kmh SE 15.9 mph25.6 kmh 29.70 in1005.8 mb 0.00 in0.0 mm 0.00 in0.0 mm 0.00 in0.0 mm
02:05 PM 32.7°F0.4°C 23.0°F-5.0°C 67% 7.6 mph SE12.2 kmh SE 15.9 mph25.6 kmh 29.70 in1005.8 mb 0.00 in0.0 mm 0.00 in0.0 mm 0.00 in0.0 mm
02:00 PM 32.5°F0.3°C 22.8°F-5.1°C 67% 8.3 mph SE13.4 kmh SE 15.9 mph25.6 kmh 29.70 in1005.8 mb 0.00 in0.0 mm 0.00 in0.0 mm 0.00 in0.0 mm
01:55 PM 32.5°F0.3°C 22.8°F-5.1°C 67% 6.0 mph SE9.7 kmh SE 16.8 mph27.0 kmh 29.71 in1006.1 mb 0.00 in0.0 mm 0.00 in0.0 mm 0.00 in0.0 mm
01:50 PM 32.5°F0.3°C 22.8°F-5.1°C 67% 8.3 mph SE13.4 kmh SE 16.8 mph27.0 kmh 29.70 in1005.8 mb 0.00 in0.0 mm 0.00 in0.0 mm 0.00 in0.0 mm
01:45 PM 32.5°F0.3°C 22.8°F-5.1°C 67% 9.2 mph SE14.8 kmh SE 13.0 mph20.9 kmh 29.70 in1005.8 mb 0.00 in0.0 mm 0.00 in0.0 mm 0.00 in0.0 mm
01:40 PM 32.4°F0.2°C 22.6°F-5.2°C 67% 4.5 mph SSE7.2 kmh SSE 13.0 mph20.9 kmh 29.71 in1006.1 mb 0.00 in0.0 mm 0.00 in0.0 mm 0.00 in0.0 mm
01:35 PM 32.4°F0.2°C 22.6°F-5.2°C 67% 6.9 mph SSE11.1 kmh SSE 12.1 mph19.5 kmh 29.71 in1006.1 mb 0.00 in0.0 mm 0.00 in0.0 mm 0.00 in0.0 mm
01:30 PM 32.4°F0.2°C 22.6°F-5.2°C 67% 4.5 mph SE7.2 kmh SE 12.1 mph19.5 kmh 29.71 in1006.1 mb 0.00 in0.0 mm 0.00 in0.0 mm 0.00 in0.0 mm
01:25 PM 32.2°F0.1°C 22.4°F-5.3°C 67% 4.5 mph SE7.2 kmh SE 13.0 mph20.9 kmh 29.71 in1006.1 mb 0.00 in0.0 mm 0.00 in0.0 mm 0.00 in0.0 mm
01:20 PM 32.0°F0.0°C 22.3°F-5.4°C 67% 6.0 mph SE9.7 kmh SE 13.0 mph20.9 kmh 29.71 in1006.1 mb 0.00 in0.0 mm 0.00 in0.0 mm 0.00 in0.0 mm
01:15 PM 31.6°F-0.2°C 22.3°F-5.4°C 68% 6.9 mph SE11.1 kmh SE 13.6 mph21.9 kmh 29.71 in1006.1 mb 0.00 in0.0 mm 0.00 in0.0 mm 0.00 in0.0 mm
01:10 PM 31.6°F-0.2°C 22.3°F-5.4°C 68% 9.8 mph SE15.8 kmh SE 18.3 mph29.5 kmh 29.71 in1006.1 mb 0.00 in0.0 mm 0.00 in0.0 mm 0.00 in0.0 mm
01:05 PM 31.6°F-0.2°C 22.3°F-5.4°C 68% 10.7 mph SE17.2 kmh SE 19.0 mph30.6 kmh 29.71 in1006.1 mb 0.00 in0.0 mm 0.00 in0.0 mm 0.00 in0.0 mm
01:00 PM 31.6°F-0.2°C 22.3°F-5.4°C 68% 13.6 mph SE21.9 kmh SE 19.0 mph30.6 kmh 29.71 in1006.1 mb 0.00 in0.0 mm 0.00 in0.0 mm 0.00 in0.0 mm
12:55 PM 31.6°F-0.2°C 22.3°F-5.4°C 68% 6.0 mph SE9.7 kmh SE 17.4 mph28.0 kmh 29.71 in1006.1 mb 0.00 in0.0 mm 0.00 in0.0 mm 0.00 in0.0 mm
12:50 PM 31.6°F-0.2°C 22.3°F-5.4°C 68% 12.1 mph SE19.5 kmh SE 17.4 mph28.0 kmh 29.70 in1005.8 mb 0.00 in0.0 mm 0.00 in0.0 mm 0.00 in0.0 mm
12:45 PM 31.6°F-0.2°C 21.9°F-5.6°C 67% 13.6 mph SE21.9 kmh SE 22.1 mph35.6 kmh 29.71 in1006.1 mb 0.00 in0.0 mm 0.00 in0.0 mm 0.00 in0.0 mm
12:40 PM 31.6°F-0.2°C 21.9°F-5.6°C 67% 13.6 mph SSE21.9 kmh SSE 22.1 mph35.6 kmh 29.71 in1006.1 mb 0.00 in0.0 mm 0.00 in0.0 mm 0.00 in0.0 mm
12:35 PM 31.6°F-0.2°C 21.9°F-5.6°C 67% 11.4 mph SE18.3 kmh SE 19.0 mph30.6 kmh 29.72 in1006.4 mb 0.00 in0.0 mm 0.00 in0.0 mm 0.00 in0.0 mm
12:30 PM 31.6°F-0.2°C 21.9°F-5.6°C 67% 6.9 mph SE11.1 kmh SE 19.0 mph30.6 kmh 29.72 in1006.4 mb 0.00 in0.0 mm 0.00 in0.0 mm 0.00 in0.0 mm
12:25 PM 31.8°F-0.1°C 21.7°F-5.7°C 66% 10.7 mph SE17.2 kmh SE 17.4 mph28.0 kmh 29.72 in1006.4 mb 0.00 in0.0 mm 0.00 in0.0 mm 0.00 in0.0 mm
12:20 PM 32.2°F0.1°C 21.7°F-5.7°C 65% 6.0 mph SE9.7 kmh SE 15.9 mph25.6 kmh 29.72 in1006.4 mb 0.00 in0.0 mm 0.00 in0.0 mm 0.00 in0.0 mm
12:15 PM 32.2°F0.1°C 21.7°F-5.7°C 65% 9.8 mph SE15.8 kmh SE 15.9 mph25.6 kmh 29.72 in1006.4 mb 0.00 in0.0 mm 0.00 in0.0 mm 0.00 in0.0 mm
12:10 PM 32.4°F0.2°C 21.9°F-5.6°C 65% 9.2 mph SE14.8 kmh SE 15.2 mph24.5 kmh 29.73 in1006.8 mb 0.00 in0.0 mm 0.00 in0.0 mm 0.00 in0.0 mm
12:05 PM 32.7°F0.4°C 22.2°F-5.4°C 65% 8.3 mph SE13.4 kmh SE 15.9 mph25.6 kmh 29.73 in1006.8 mb 0.00 in0.0 mm 0.00 in0.0 mm 0.00 in0.0 mm
12:00 PM 32.7°F0.4°C 21.9°F-5.6°C 64% 6.9 mph SE11.1 kmh SE 21.3 mph34.3 kmh 29.73 in1006.8 mb 0.00 in0.0 mm 0.00 in0.0 mm 0.00 in0.0 mm
11:55 AM 32.7°F0.4°C 21.9°F-5.6°C 64% 13.0 mph SE20.9 kmh SE 22.8 mph36.7 kmh 29.72 in1006.4 mb 0.00 in0.0 mm 0.00 in0.0 mm 0.00 in0.0 mm
11:50 AM 32.9°F0.5°C 21.7°F-5.7°C 63% 13.0 mph SSE20.9 kmh SSE 22.8 mph36.7 kmh 29.73 in1006.8 mb 0.00 in0.0 mm 0.00 in0.0 mm 0.00 in0.0 mm
11:45 AM 33.1°F0.6°C 21.8°F-5.7°C 63% 9.2 mph S14.8 kmh S 19.7 mph31.7 kmh 29.73 in1006.8 mb 0.00 in0.0 mm 0.00 in0.0 mm 0.00 in0.0 mm
11:40 AM 33.4°F0.8°C 21.8°F-5.7°C 62% 7.6 mph SSE12.2 kmh SSE 18.3 mph29.5 kmh 29.73 in1006.8 mb 0.00 in0.0 mm 0.00 in0.0 mm 0.00 in0.0 mm
11:35 AM 33.8°F1.0°C 21.8°F-5.7°C 61% 7.6 mph SSE12.2 kmh SSE 18.3 mph29.5 kmh 29.72 in1006.4 mb 0.00 in0.0 mm 0.00 in0.0 mm 0.00 in0.0 mm
11:30 AM 34.2°F1.2°C 22.1°F-5.5°C 61% 9.8 mph S15.8 kmh S 17.4 mph28.0 kmh 29.72 in1006.4 mb 0.00 in0.0 mm 0.00 in0.0 mm 0.00 in0.0 mm
11:25 AM 34.0°F1.1°C 21.9°F-5.6°C 61% 6.0 mph SSE9.7 kmh SSE 17.4 mph28.0 kmh 29.72 in1006.4 mb 0.00 in0.0 mm 0.00 in0.0 mm 0.00 in0.0 mm
11:20 AM 33.8°F1.0°C 21.8°F-5.7°C 61% 5.4 mph SE8.7 kmh SE 15.9 mph25.6 kmh 29.73 in1006.8 mb 0.00 in0.0 mm 0.00 in0.0 mm 0.00 in0.0 mm
11:15 AM 33.4°F0.8°C 21.8°F-5.7°C 62% 13.0 mph SE20.9 kmh SE 18.3 mph29.5 kmh 29.73 in1006.8 mb 0.00 in0.0 mm 0.00 in0.0 mm 0.00 in0.0 mm
11:10 AM 33.4°F0.8°C 21.4°F-5.9°C 61% 9.8 mph SE15.8 kmh SE 18.3 mph29.5 kmh 29.73 in1006.8 mb 0.00 in0.0 mm 0.00 in0.0 mm 0.00 in0.0 mm
11:05 AM 33.6°F0.9°C 21.2°F-6.0°C 60% 9.2 mph SE14.8 kmh SE 18.3 mph29.5 kmh 29.72 in1006.4 mb 0.00 in0.0 mm 0.00 in0.0 mm 0.00 in0.0 mm
11:00 AM 34.2°F1.2°C 20.9°F-6.2°C 58% 9.2 mph SE14.8 kmh SE 21.3 mph34.3 kmh 29.73 in1006.8 mb 0.00 in0.0 mm 0.00 in0.0 mm 0.00 in0.0 mm
10:55 AM 35.6°F2.0°C 21.4°F-5.9°C 56% 6.9 mph SE11.1 kmh SE 21.3 mph34.3 kmh 29.73 in1006.8 mb 0.00 in0.0 mm 0.00 in0.0 mm 0.00 in0.0 mm
10:50 AM 36.1°F2.3°C 21.5°F-5.8°C 55% 6.9 mph SE11.1 kmh SE 15.9 mph25.6 kmh 29.73 in1006.8 mb 0.00 in0.0 mm 0.00 in0.0 mm 0.00 in0.0 mm
10:45 AM 36.3°F2.4°C 21.7°F-5.7°C 55% 5.4 mph SSE8.7 kmh SSE 11.4 mph18.3 kmh 29.73 in1006.8 mb 0.00 in0.0 mm 0.00 in0.0 mm 0.00 in0.0 mm
10:40 AM 36.1°F2.3°C 21.5°F-5.8°C 55% 7.6 mph SSE12.2 kmh SSE 14.5 mph23.3 kmh 29.73 in1006.8 mb 0.00 in0.0 mm 0.00 in0.0 mm 0.00 in0.0 mm
10:35 AM 36.3°F2.4°C 21.2°F-6.0°C 54% 5.4 mph S8.7 kmh S 14.5 mph23.3 kmh 29.73 in1006.8 mb 0.00 in0.0 mm 0.00 in0.0 mm 0.00 in0.0 mm
10:30 AM 36.3°F2.4°C 21.2°F-6.0°C 54% 5.4 mph S8.7 kmh S 9.2 mph14.8 kmh 29.73 in1006.8 mb 0.00 in0.0 mm 0.00 in0.0 mm 0.00 in0.0 mm
10:25 AM 36.1°F2.3°C 22.4°F-5.3°C 57% 4.5 mph S7.2 kmh S 9.2 mph14.8 kmh 29.73 in1006.8 mb 0.00 in0.0 mm 0.00 in0.0 mm 0.00 in0.0 mm
10:20 AM 35.2°F1.8°C 22.3°F-5.4°C 59% 3.8 mph SSE6.1 kmh SSE 11.4 mph18.3 kmh 29.73 in1006.8 mb 0.00 in0.0 mm 0.00 in0.0 mm 0.00 in0.0 mm
10:15 AM 34.3°F1.3°C 21.9°F-5.6°C 60% 5.4 mph ESE8.7 kmh ESE 16.8 mph27.0 kmh 29.74 in1007.1 mb 0.00 in0.0 mm 0.00 in0.0 mm 0.00 in0.0 mm
10:10 AM 33.6°F0.9°C 21.6°F-5.8°C 61% 9.2 mph ESE14.8 kmh ESE 16.8 mph27.0 kmh 29.74 in1007.1 mb 0.00 in0.0 mm 0.00 in0.0 mm 0.00 in0.0 mm
10:05 AM 33.4°F0.8°C 21.4°F-5.9°C 61% 13.6 mph SSE21.9 kmh SSE 16.8 mph27.0 kmh 29.74 in1007.1 mb 0.00 in0.0 mm 0.00 in0.0 mm 0.00 in0.0 mm
10:00 AM 33.1°F0.6°C 20.7°F-6.3°C 60% 6.9 mph S11.1 kmh S 14.5 mph23.3 kmh 29.74 in1007.1 mb 0.00 in0.0 mm 0.00 in0.0 mm 0.00 in0.0 mm
09:55 AM 34.0°F1.1°C 21.1°F-6.1°C 59% 8.3 mph S13.4 kmh S 14.5 mph23.3 kmh 29.74 in1007.1 mb 0.00 in0.0 mm 0.00 in0.0 mm 0.00 in0.0 mm
09:50 AM 34.0°F1.1°C 21.1°F-6.1°C 59% 4.5 mph SSE7.2 kmh SSE 15.2 mph24.5 kmh 29.74 in1007.1 mb 0.00 in0.0 mm 0.00 in0.0 mm 0.00 in0.0 mm
09:45 AM 33.8°F1.0°C 21.0°F-6.1°C 59% 6.0 mph SE9.7 kmh SE 17.4 mph28.0 kmh 29.75 in1007.5 mb 0.00 in0.0 mm 0.00 in0.0 mm 0.00 in0.0 mm
09:40 AM 34.0°F1.1°C 21.1°F-6.1°C 59% 9.2 mph SE14.8 kmh SE 17.4 mph28.0 kmh 29.74 in1007.1 mb 0.00 in0.0 mm 0.00 in0.0 mm 0.00 in0.0 mm
09:35 AM 34.2°F1.2°C 21.7°F-5.7°C 60% 8.3 mph SSE13.4 kmh SSE 12.1 mph19.5 kmh 29.75 in1007.5 mb 0.00 in0.0 mm 0.00 in0.0 mm 0.00 in0.0 mm
09:30 AM 33.3°F0.7°C 21.3°F-5.9°C 61% 5.4 mph SE8.7 kmh SE 10.7 mph17.2 kmh 29.74 in1007.1 mb 0.00 in0.0 mm 0.00 in0.0 mm 0.00 in0.0 mm
09:25 AM 33.1°F0.6°C 21.1°F-6.1°C 61% 5.4 mph SE8.7 kmh SE 10.7 mph17.2 kmh 29.74 in1007.1 mb 0.00 in0.0 mm 0.00 in0.0 mm 0.00 in0.0 mm
09:20 AM 33.1°F0.6°C 21.1°F-6.1°C 61% 5.4 mph SE8.7 kmh SE 13.6 mph21.9 kmh 29.74 in1007.1 mb 0.00 in0.0 mm 0.00 in0.0 mm 0.00 in0.0 mm
09:15 AM 32.7°F0.4°C 21.1°F-6.1°C 62% 9.8 mph SE15.8 kmh SE 18.3 mph29.5 kmh 29.74 in1007.1 mb 0.00 in0.0 mm 0.00 in0.0 mm 0.00 in0.0 mm
09:10 AM 32.5°F0.3°C 21.0°F-6.1°C 62% 6.9 mph SE11.1 kmh SE 18.3 mph29.5 kmh 29.73 in1006.8 mb 0.00 in0.0 mm 0.00 in0.0 mm 0.00 in0.0 mm
09:05 AM 32.4°F0.2°C 20.8°F-6.2°C 62% 11.4 mph SE18.3 kmh SE 17.4 mph28.0 kmh 29.73 in1006.8 mb 0.00 in0.0 mm 0.00 in0.0 mm 0.00 in0.0 mm
09:00 AM 32.4°F0.2°C 20.8°F-6.2°C 62% 9.8 mph SE15.8 kmh SE 15.2 mph24.5 kmh 29.73 in1006.8 mb 0.00 in0.0 mm 0.00 in0.0 mm 0.00 in0.0 mm
08:55 AM 32.2°F0.1°C 20.6°F-6.3°C 62% 7.6 mph ESE12.2 kmh ESE 14.5 mph23.3 kmh 29.73 in1006.8 mb 0.00 in0.0 mm 0.00 in0.0 mm 0.00 in0.0 mm
08:50 AM 32.2°F0.1°C 21.0°F-6.1°C 63% 9.2 mph E14.8 kmh E 15.9 mph25.6 kmh 29.74 in1007.1 mb 0.00 in0.0 mm 0.00 in0.0 mm 0.00 in0.0 mm
08:45 AM 31.8°F-0.1°C 21.0°F-6.1°C 64% 9.8 mph ESE15.8 kmh ESE 15.9 mph25.6 kmh 29.73 in1006.8 mb 0.00 in0.0 mm 0.00 in0.0 mm 0.00 in0.0 mm
08:40 AM 31.6°F-0.2°C 20.8°F-6.2°C 64% 8.3 mph SE13.4 kmh SE 16.8 mph27.0 kmh 29.74 in1007.1 mb 0.00 in0.0 mm 0.00 in0.0 mm 0.00 in0.0 mm
08:35 AM 31.6°F-0.2°C 20.8°F-6.2°C 64% 11.4 mph SE18.3 kmh SE 16.8 mph27.0 kmh 29.74 in1007.1 mb 0.00 in0.0 mm 0.00 in0.0 mm 0.00 in0.0 mm
08:30 AM 31.6°F-0.2°C 20.8°F-6.2°C 64% 13.0 mph SE20.9 kmh SE 16.8 mph27.0 kmh 29.74 in1007.1 mb 0.00 in0.0 mm 0.00 in0.0 mm 0.00 in0.0 mm
08:25 AM 31.1°F-0.5°C 20.3°F-6.5°C 64% 9.8 mph ESE15.8 kmh ESE 16.8 mph27.0 kmh 29.74 in1007.1 mb 0.00 in0.0 mm 0.00 in0.0 mm 0.00 in0.0 mm
08:20 AM 30.9°F-0.6°C 20.2°F-6.6°C 64% 9.2 mph SE14.8 kmh SE 16.8 mph27.0 kmh 29.74 in1007.1 mb 0.00 in0.0 mm 0.00 in0.0 mm 0.00 in0.0 mm
08:15 AM 30.7°F-0.7°C 20.4°F-6.4°C 65% 10.7 mph SE17.2 kmh SE 15.9 mph25.6 kmh 29.73 in1006.8 mb 0.00 in0.0 mm 0.00 in0.0 mm 0.00 in0.0 mm
08:10 AM 30.4°F-0.9°C 20.0°F-6.7°C 65% 6.9 mph SE11.1 kmh SE 15.9 mph25.6 kmh 29.73 in1006.8 mb 0.00 in0.0 mm 0.00 in0.0 mm 0.00 in0.0 mm
08:05 AM 29.8°F-1.2°C 20.2°F-6.6°C 67% 8.3 mph SE13.4 kmh SE 14.5 mph23.3 kmh 29.74 in1007.1 mb 0.00 in0.0 mm 0.00 in0.0 mm 0.00 in0.0 mm
08:00 AM 29.3°F-1.5°C 19.7°F-6.8°C 67% 7.6 mph ESE12.2 kmh ESE 14.5 mph23.3 kmh 29.73 in1006.8 mb 0.00 in0.0 mm 0.00 in0.0 mm 0.00 in0.0 mm
07:55 AM 28.8°F-1.8°C 19.2°F-7.1°C 67% 5.4 mph E8.7 kmh E 9.8 mph15.8 kmh 29.74 in1007.1 mb 0.00 in0.0 mm 0.00 in0.0 mm 0.00 in0.0 mm
07:50 AM 28.6°F-1.9°C 19.0°F-7.2°C 67% 6.0 mph ESE9.7 kmh ESE 9.8 mph15.8 kmh 29.74 in1007.1 mb 0.00 in0.0 mm 0.00 in0.0 mm 0.00 in0.0 mm
07:45 AM 28.8°F-1.8°C 19.5°F-6.9°C 68% 6.0 mph SE9.7 kmh SE 11.4 mph18.3 kmh 29.74 in1007.1 mb 0.00 in0.0 mm 0.00 in0.0 mm 0.00 in0.0 mm
07:40 AM 28.6°F-1.9°C 19.4°F-7.0°C 68% 9.2 mph SE14.8 kmh SE 11.4 mph18.3 kmh 29.73 in1006.8 mb 0.00 in0.0 mm 0.00 in0.0 mm 0.00 in0.0 mm
07:35 AM 28.2°F-2.1°C 17.6°F-8.0°C 64% 6.9 mph SE11.1 kmh SE 10.7 mph17.2 kmh 29.74 in1007.1 mb 0.00 in0.0 mm 0.00 in0.0 mm 0.00 in0.0 mm
07:30 AM 28.2°F-2.1°C 17.6°F-8.0°C 64% 5.4 mph SE8.7 kmh SE 13.6 mph21.9 kmh 29.74 in1007.1 mb 0.00 in0.0 mm 0.00 in0.0 mm 0.00 in0.0 mm
07:25 AM 28.0°F-2.2°C 17.4°F-8.1°C 64% 6.9 mph SE11.1 kmh SE 13.6 mph21.9 kmh 29.73 in1006.8 mb 0.00 in0.0 mm 0.00 in0.0 mm 0.00 in0.0 mm
07:20 AM 27.7°F-2.4°C 17.1°F-8.3°C 64% 7.6 mph SE12.2 kmh SE 12.1 mph19.5 kmh 29.73 in1006.8 mb 0.00 in0.0 mm 0.00 in0.0 mm 0.00 in0.0 mm
07:15 AM 27.7°F-2.4°C 17.1°F-8.3°C 64% 4.5 mph SE7.2 kmh SE 10.7 mph17.2 kmh 29.74 in1007.1 mb 0.00 in0.0 mm 0.00 in0.0 mm 0.00 in0.0 mm
07:10 AM 27.7°F-2.4°C 17.1°F-8.3°C 64% 5.4 mph SE8.7 kmh SE 11.4 mph18.3 kmh 29.74 in1007.1 mb 0.00 in0.0 mm 0.00 in0.0 mm 0.00 in0.0 mm
07:05 AM 27.3°F-2.6°C 16.7°F-8.5°C 64% 9.2 mph SE14.8 kmh SE 11.4 mph18.3 kmh 29.74 in1007.1 mb 0.00 in0.0 mm 0.00 in0.0 mm 0.00 in0.0 mm
07:00 AM 27.0°F-2.8°C 16.4°F-8.7°C 64% 8.3 mph SE13.4 kmh SE 9.8 mph15.8 kmh 29.74 in1007.1 mb 0.00 in0.0 mm 0.00 in0.0 mm 0.00 in0.0 mm
06:55 AM 27.1°F-2.7°C 16.6°F-8.6°C 64% 2.2 mph SE3.5 kmh SE 6.9 mph11.1 kmh 29.74 in1007.1 mb 0.00 in0.0 mm 0.00 in0.0 mm 0.00 in0.0 mm
06:50 AM 27.3°F-2.6°C 16.7°F-8.5°C 64% 1.6 mph SSE2.6 kmh SSE 9.8 mph15.8 kmh 29.74 in1007.1 mb 0.00 in0.0 mm 0.00 in0.0 mm 0.00 in0.0 mm
06:45 AM 27.3°F-2.6°C 16.7°F-8.5°C 64% 1.6 mph SE2.6 kmh SE 9.8 mph15.8 kmh 29.75 in1007.5 mb 0.00 in0.0 mm 0.00 in0.0 mm 0.00 in0.0 mm
06:40 AM 27.1°F-2.7°C 16.6°F-8.6°C 64% 4.5 mph ESE7.2 kmh ESE 8.3 mph13.4 kmh 29.74 in1007.1 mb 0.00 in0.0 mm 0.00 in0.0 mm 0.00 in0.0 mm
06:35 AM 27.5°F-2.5°C 17.3°F-8.2°C 65% 1.6 mph SE2.6 kmh SE 10.7 mph17.2 kmh 29.74 in1007.1 mb 0.00 in0.0 mm 0.00 in0.0 mm 0.00 in0.0 mm
06:30 AM 27.3°F-2.6°C 17.1°F-8.3°C 65% 5.4 mph SE8.7 kmh SE 10.7 mph17.2 kmh 29.74 in1007.1 mb 0.00 in0.0 mm 0.00 in0.0 mm 0.00 in0.0 mm
06:25 AM 27.1°F-2.7°C 16.9°F-8.4°C 65% 5.4 mph ESE8.7 kmh ESE 10.7 mph17.2 kmh 29.74 in1007.1 mb 0.00 in0.0 mm 0.00 in0.0 mm 0.00 in0.0 mm
06:20 AM 27.0°F-2.8°C 16.8°F-8.4°C 65% 6.9 mph ESE11.1 kmh ESE 10.7 mph17.2 kmh 29.75 in1007.5 mb 0.00 in0.0 mm 0.00 in0.0 mm 0.00 in0.0 mm
06:15 AM 27.0°F-2.8°C 16.8°F-8.4°C 65% 6.9 mph E11.1 kmh E 8.3 mph13.4 kmh 29.74 in1007.1 mb 0.00 in0.0 mm 0.00 in0.0 mm 0.00 in0.0 mm
06:10 AM 27.0°F-2.8°C 16.8°F-8.4°C 65% 6.0 mph SE9.7 kmh SE 8.3 mph13.4 kmh 29.74 in1007.1 mb 0.00 in0.0 mm 0.00 in0.0 mm 0.00 in0.0 mm
06:05 AM 27.1°F-2.7°C 16.9°F-8.4°C 65% 5.4 mph SE8.7 kmh SE 9.2 mph14.8 kmh 29.75 in1007.5 mb 0.00 in0.0 mm 0.00 in0.0 mm 0.00 in0.0 mm
06:00 AM 27.1°F-2.7°C 16.9°F-8.4°C 65% 4.5 mph SE7.2 kmh SE 13.0 mph20.9 kmh 29.75 in1007.5 mb 0.00 in0.0 mm 0.00 in0.0 mm 0.00 in0.0 mm
05:55 AM 26.8°F-2.9°C 16.9°F-8.4°C 66% 6.9 mph SE11.1 kmh SE 13.0 mph20.9 kmh 29.75 in1007.5 mb 0.00 in0.0 mm 0.00 in0.0 mm 0.00 in0.0 mm
05:50 AM 26.4°F-3.1°C 16.6°F-8.6°C 66% 8.3 mph ESE13.4 kmh ESE 10.7 mph17.2 kmh 29.75 in1007.5 mb 0.00 in0.0 mm 0.00 in0.0 mm 0.00 in0.0 mm
05:45 AM 26.4°F-3.1°C 16.6°F-8.6°C 66% 5.4 mph ESE8.7 kmh ESE 9.8 mph15.8 kmh 29.75 in1007.5 mb 0.00 in0.0 mm 0.00 in0.0 mm 0.00 in0.0 mm
05:40 AM 26.6°F-3.0°C 16.4°F-8.7°C 65% 5.4 mph ESE8.7 kmh ESE 9.8 mph15.8 kmh 29.75 in1007.5 mb 0.00 in0.0 mm 0.00 in0.0 mm 0.00 in0.0 mm
05:35 AM 26.6°F-3.0°C 16.4°F-8.7°C 65% 6.0 mph ESE9.7 kmh ESE 9.8 mph15.8 kmh 29.76 in1007.8 mb 0.00 in0.0 mm 0.00 in0.0 mm 0.00 in0.0 mm
05:30 AM 26.6°F-3.0°C 16.4°F-8.7°C 65% 5.4 mph E8.7 kmh E 9.2 mph14.8 kmh 29.76 in1007.8 mb 0.00 in0.0 mm 0.00 in0.0 mm 0.00 in0.0 mm
05:25 AM 27.0°F-2.8°C 16.8°F-8.4°C 65% 6.9 mph E11.1 kmh E 13.0 mph20.9 kmh 29.76 in1007.8 mb 0.00 in0.0 mm 0.00 in0.0 mm 0.00 in0.0 mm
05:20 AM 27.0°F-2.8°C 16.8°F-8.4°C 65% 6.0 mph E9.7 kmh E 15.9 mph25.6 kmh 29.76 in1007.8 mb 0.00 in0.0 mm 0.00 in0.0 mm 0.00 in0.0 mm
05:15 AM 27.0°F-2.8°C 16.8°F-8.4°C 65% 10.7 mph ESE17.2 kmh ESE 15.9 mph25.6 kmh 29.76 in1007.8 mb 0.00 in0.0 mm 0.00 in0.0 mm 0.00 in0.0 mm
05:10 AM 27.0°F-2.8°C 16.8°F-8.4°C 65% 9.8 mph ESE15.8 kmh ESE 14.5 mph23.3 kmh 29.76 in1007.8 mb 0.00 in0.0 mm 0.00 in0.0 mm 0.00 in0.0 mm
05:05 AM 27.0°F-2.8°C 16.8°F-8.4°C 65% 9.2 mph E14.8 kmh E 14.5 mph23.3 kmh 29.76 in1007.8 mb 0.00 in0.0 mm 0.00 in0.0 mm 0.00 in0.0 mm
05:00 AM 27.0°F-2.8°C 16.8°F-8.4°C 65% 11.4 mph E18.3 kmh E 14.5 mph23.3 kmh 29.76 in1007.8 mb 0.00 in0.0 mm 0.00 in0.0 mm 0.00 in0.0 mm
04:55 AM 26.8°F-2.9°C 16.6°F-8.6°C 65% 8.3 mph E13.4 kmh E 13.0 mph20.9 kmh 29.76 in1007.8 mb 0.00 in0.0 mm 0.00 in0.0 mm 0.00 in0.0 mm
04:50 AM 26.6°F-3.0°C 16.4°F-8.7°C 65% 6.9 mph E11.1 kmh E 13.0 mph20.9 kmh 29.76 in1007.8 mb 0.00 in0.0 mm 0.00 in0.0 mm 0.00 in0.0 mm
04:45 AM 26.6°F-3.0°C 16.4°F-8.7°C 65% 8.3 mph E13.4 kmh E 11.4 mph18.3 kmh 29.76 in1007.8 mb 0.00 in0.0 mm 0.00 in0.0 mm 0.00 in0.0 mm
04:40 AM 26.6°F-3.0°C 16.4°F-8.7°C 65% 8.3 mph E13.4 kmh E 11.4 mph18.3 kmh 29.77 in1008.1 mb 0.00 in0.0 mm 0.00 in0.0 mm 0.00 in0.0 mm
04:35 AM 26.6°F-3.0°C 16.1°F-8.8°C 64% 6.9 mph E11.1 kmh E 11.4 mph18.3 kmh 29.77 in1008.1 mb 0.00 in0.0 mm 0.00 in0.0 mm 0.00 in0.0 mm
04:30 AM 26.4°F-3.1°C 16.2°F-8.8°C 65% 7.6 mph E12.2 kmh E 12.1 mph19.5 kmh 29.77 in1008.1 mb 0.00 in0.0 mm 0.00 in0.0 mm 0.00 in0.0 mm
04:25 AM 26.6°F-3.0°C 16.1°F-8.8°C 64% 6.9 mph ESE11.1 kmh ESE 12.1 mph19.5 kmh 29.77 in1008.1 mb 0.00 in0.0 mm 0.00 in0.0 mm 0.00 in0.0 mm
04:20 AM 26.6°F-3.0°C 16.1°F-8.8°C 64% 4.5 mph SE7.2 kmh SE 13.0 mph20.9 kmh 29.78 in1008.5 mb 0.00 in0.0 mm 0.00 in0.0 mm 0.00 in0.0 mm
04:15 AM 26.6°F-3.0°C 16.1°F-8.8°C 64% 5.4 mph SE8.7 kmh SE 13.0 mph20.9 kmh 29.78 in1008.5 mb 0.00 in0.0 mm 0.00 in0.0 mm 0.00 in0.0 mm
04:10 AM 26.6°F-3.0°C 15.7°F-9.1°C 63% 5.4 mph ESE8.7 kmh ESE 8.3 mph13.4 kmh 29.78 in1008.5 mb 0.00 in0.0 mm 0.00 in0.0 mm 0.00 in0.0 mm
04:05 AM 26.6°F-3.0°C 15.7°F-9.1°C 63% 4.5 mph SE7.2 kmh SE 9.8 mph15.8 kmh 29.78 in1008.5 mb 0.00 in0.0 mm 0.00 in0.0 mm 0.00 in0.0 mm
04:00 AM 27.0°F-2.8°C 16.0°F-8.9°C 63% 4.5 mph SE7.2 kmh SE 13.0 mph20.9 kmh 29.78 in1008.5 mb 0.00 in0.0 mm 0.00 in0.0 mm 0.00 in0.0 mm
03:55 AM 27.3°F-2.6°C 16.7°F-8.5°C 64% 4.5 mph SE7.2 kmh SE 13.6 mph21.9 kmh 29.78 in1008.5 mb 0.00 in0.0 mm 0.00 in0.0 mm 0.00 in0.0 mm
03:50 AM 27.0°F-2.8°C 16.4°F-8.7°C 64% 9.8 mph SE15.8 kmh SE 13.6 mph21.9 kmh 29.78 in1008.5 mb 0.00 in0.0 mm 0.00 in0.0 mm 0.00 in0.0 mm
03:45 AM 26.6°F-3.0°C 16.1°F-8.8°C 64% 4.5 mph SE7.2 kmh SE 15.2 mph24.5 kmh 29.78 in1008.5 mb 0.00 in0.0 mm 0.00 in0.0 mm 0.00 in0.0 mm
03:40 AM 26.6°F-3.0°C 16.1°F-8.8°C 64% 11.4 mph SE18.3 kmh SE 15.2 mph24.5 kmh 29.78 in1008.5 mb 0.00 in0.0 mm 0.00 in0.0 mm 0.00 in0.0 mm
03:35 AM 26.4°F-3.1°C 16.2°F-8.8°C 65% 7.6 mph SE12.2 kmh SE 10.7 mph17.2 kmh 29.77 in1008.1 mb 0.00 in0.0 mm 0.00 in0.0 mm 0.00 in0.0 mm
03:30 AM 26.4°F-3.1°C 16.2°F-8.8°C 65% 4.5 mph SE7.2 kmh SE 14.5 mph23.3 kmh 29.78 in1008.5 mb 0.00 in0.0 mm 0.00 in0.0 mm 0.00 in0.0 mm
03:25 AM 26.6°F-3.0°C 16.1°F-8.8°C 64% 6.9 mph SE11.1 kmh SE 15.9 mph25.6 kmh 29.78 in1008.5 mb 0.00 in0.0 mm 0.00 in0.0 mm 0.00 in0.0 mm
03:20 AM 26.4°F-3.1°C 16.2°F-8.8°C 65% 10.7 mph SE17.2 kmh SE 15.9 mph25.6 kmh 29.77 in1008.1 mb 0.00 in0.0 mm 0.00 in0.0 mm 0.00 in0.0 mm
03:15 AM 26.4°F-3.1°C 16.2°F-8.8°C 65% 12.1 mph SE19.5 kmh SE 19.0 mph30.6 kmh 29.77 in1008.1 mb 0.00 in0.0 mm 0.00 in0.0 mm 0.00 in0.0 mm
03:10 AM 26.6°F-3.0°C 16.1°F-8.8°C 64% 13.0 mph SE20.9 kmh SE 19.7 mph31.7 kmh 29.78 in1008.5 mb 0.00 in0.0 mm 0.00 in0.0 mm 0.00 in0.0 mm
03:05 AM 26.6°F-3.0°C 16.1°F-8.8°C 64% 12.1 mph SE19.5 kmh SE 19.7 mph31.7 kmh 29.78 in1008.5 mb 0.00 in0.0 mm 0.00 in0.0 mm 0.00 in0.0 mm
03:00 AM 26.4°F-3.1°C 16.2°F-8.8°C 65% 14.5 mph SE23.3 kmh SE 19.7 mph31.7 kmh 29.78 in1008.5 mb 0.00 in0.0 mm 0.00 in0.0 mm 0.00 in0.0 mm
02:55 AM 26.4°F-3.1°C 16.2°F-8.8°C 65% 9.2 mph SE14.8 kmh SE 16.8 mph27.0 kmh 29.78 in1008.5 mb 0.00 in0.0 mm 0.00 in0.0 mm 0.00 in0.0 mm
02:50 AM 26.2°F-3.2°C 16.1°F-8.8°C 65% 10.7 mph SE17.2 kmh SE 16.8 mph27.0 kmh 29.78 in1008.5 mb 0.00 in0.0 mm 0.00 in0.0 mm 0.00 in0.0 mm
02:45 AM 26.2°F-3.2°C 16.1°F-8.8°C 65% 10.7 mph ESE17.2 kmh ESE 15.2 mph24.5 kmh 29.78 in1008.5 mb 0.00 in0.0 mm 0.00 in0.0 mm 0.00 in0.0 mm
02:40 AM 26.1°F-3.3°C 15.9°F-8.9°C 65% 8.3 mph SE13.4 kmh SE 15.2 mph24.5 kmh 29.79 in1008.8 mb 0.00 in0.0 mm 0.00 in0.0 mm 0.00 in0.0 mm
02:35 AM 26.1°F-3.3°C 16.2°F-8.8°C 66% 9.2 mph ESE14.8 kmh ESE 15.2 mph24.5 kmh 29.79 in1008.8 mb 0.00 in0.0 mm 0.00 in0.0 mm 0.00 in0.0 mm
02:30 AM 26.1°F-3.3°C 16.2°F-8.8°C 66% 10.7 mph ESE17.2 kmh ESE 17.4 mph28.0 kmh 29.79 in1008.8 mb 0.00 in0.0 mm 0.00 in0.0 mm 0.00 in0.0 mm
02:25 AM 26.1°F-3.3°C 16.2°F-8.8°C 66% 9.8 mph ESE15.8 kmh ESE 17.4 mph28.0 kmh 29.80 in1009.1 mb 0.00 in0.0 mm 0.00 in0.0 mm 0.00 in0.0 mm
02:20 AM 25.9°F-3.4°C 16.1°F-8.8°C 66% 10.7 mph ESE17.2 kmh ESE 15.2 mph24.5 kmh 29.80 in1009.1 mb 0.00 in0.0 mm 0.00 in0.0 mm 0.00 in0.0 mm
02:15 AM 25.7°F-3.5°C 15.9°F-8.9°C 66% 13.0 mph ESE20.9 kmh ESE 15.2 mph24.5 kmh 29.80 in1009.1 mb 0.00 in0.0 mm 0.00 in0.0 mm 0.00 in0.0 mm
02:10 AM 25.7°F-3.5°C 15.9°F-8.9°C 66% 10.7 mph ESE17.2 kmh ESE 14.5 mph23.3 kmh 29.80 in1009.1 mb 0.00 in0.0 mm 0.00 in0.0 mm 0.00 in0.0 mm
02:00 AM 25.7°F-3.5°C 15.9°F-8.9°C 66% 6.0 mph ESE9.7 kmh ESE 13.0 mph20.9 kmh 29.81 in1009.5 mb 0.00 in0.0 mm 0.00 in0.0 mm 0.00 in0.0 mm
01:55 AM 25.7°F-3.5°C 15.6°F-9.1°C 65% 9.2 mph ESE14.8 kmh ESE 13.0 mph20.9 kmh 29.81 in1009.5 mb 0.00 in0.0 mm 0.00 in0.0 mm 0.00 in0.0 mm
01:50 AM 25.5°F-3.6°C 15.4°F-9.2°C 65% 10.7 mph ESE17.2 kmh ESE 13.0 mph20.9 kmh 29.81 in1009.5 mb 0.00 in0.0 mm 0.00 in0.0 mm 0.00 in0.0 mm
01:45 AM 25.5°F-3.6°C 15.4°F-9.2°C 65% 7.6 mph ESE12.2 kmh ESE 9.2 mph14.8 kmh 29.81 in1009.5 mb 0.00 in0.0 mm 0.00 in0.0 mm 0.00 in0.0 mm
01:40 AM 25.7°F-3.5°C 15.6°F-9.1°C 65% 6.0 mph SE9.7 kmh SE 8.3 mph13.4 kmh 29.82 in1009.8 mb 0.00 in0.0 mm 0.00 in0.0 mm 0.00 in0.0 mm
01:35 AM 25.9°F-3.4°C 15.7°F-9.1°C 65% 3.8 mph SE6.1 kmh SE 11.4 mph18.3 kmh 29.81 in1009.5 mb 0.00 in0.0 mm 0.00 in0.0 mm 0.00 in0.0 mm
01:30 AM 26.1°F-3.3°C 15.9°F-8.9°C 65% 3.8 mph ESE6.1 kmh ESE 11.4 mph18.3 kmh 29.81 in1009.5 mb 0.00 in0.0 mm 0.00 in0.0 mm 0.00 in0.0 mm
01:25 AM 25.9°F-3.4°C 15.7°F-9.1°C 65% 9.2 mph SE14.8 kmh SE 12.1 mph19.5 kmh 29.82 in1009.8 mb 0.00 in0.0 mm 0.00 in0.0 mm 0.00 in0.0 mm
01:20 AM 26.1°F-3.3°C 16.2°F-8.8°C 66% 6.9 mph SE11.1 kmh SE 12.1 mph19.5 kmh 29.82 in1009.8 mb 0.00 in0.0 mm 0.00 in0.0 mm 0.00 in0.0 mm
01:15 AM 26.1°F-3.3°C 16.2°F-8.8°C 66% 8.3 mph SE13.4 kmh SE 11.4 mph18.3 kmh 29.82 in1009.8 mb 0.00 in0.0 mm 0.00 in0.0 mm 0.00 in0.0 mm
01:10 AM 26.2°F-3.2°C 16.4°F-8.7°C 66% 6.0 mph ESE9.7 kmh ESE 12.1 mph19.5 kmh 29.82 in1009.8 mb 0.00 in0.0 mm 0.00 in0.0 mm 0.00 in0.0 mm
01:05 AM 26.1°F-3.3°C 16.2°F-8.8°C 66% 9.8 mph E15.8 kmh E 12.1 mph19.5 kmh 29.82 in1009.8 mb 0.00 in0.0 mm 0.00 in0.0 mm 0.00 in0.0 mm
01:00 AM 26.1°F-3.3°C 16.2°F-8.8°C 66% 8.3 mph SE13.4 kmh SE 12.1 mph19.5 kmh 29.82 in1009.8 mb 0.00 in0.0 mm 0.00 in0.0 mm 0.00 in0.0 mm
12:55 AM 26.4°F-3.1°C 16.6°F-8.6°C 66% 6.9 mph SE11.1 kmh SE 12.1 mph19.5 kmh 29.83 in1010.2 mb 0.00 in0.0 mm 0.00 in0.0 mm 0.00 in0.0 mm
12:50 AM 26.4°F-3.1°C 16.6°F-8.6°C 66% 7.6 mph SE12.2 kmh SE 15.2 mph24.5 kmh 29.83 in1010.2 mb 0.00 in0.0 mm 0.00 in0.0 mm 0.00 in0.0 mm
12:45 AM 26.4°F-3.1°C 16.6°F-8.6°C 66% 9.8 mph SE15.8 kmh SE 15.2 mph24.5 kmh 29.82 in1009.8 mb 0.00 in0.0 mm 0.00 in0.0 mm 0.00 in0.0 mm
12:40 AM 26.4°F-3.1°C 16.6°F-8.6°C 66% 8.3 mph ESE13.4 kmh ESE 14.5 mph23.3 kmh 29.83 in1010.2 mb 0.00 in0.0 mm 0.00 in0.0 mm 0.00 in0.0 mm
12:35 AM 26.6°F-3.0°C 16.4°F-8.7°C 65% 9.8 mph ESE15.8 kmh ESE 15.2 mph24.5 kmh 29.82 in1009.8 mb 0.00 in0.0 mm 0.00 in0.0 mm 0.00 in0.0 mm
12:30 AM 26.6°F-3.0°C 16.4°F-8.7°C 65% 12.1 mph ESE19.5 kmh ESE 15.2 mph24.5 kmh 29.83 in1010.2 mb 0.00 in0.0 mm 0.00 in0.0 mm 0.00 in0.0 mm
12:25 AM 26.6°F-3.0°C 16.4°F-8.7°C 65% 12.1 mph ESE19.5 kmh ESE 16.8 mph27.0 kmh 29.83 in1010.2 mb 0.00 in0.0 mm 0.00 in0.0 mm 0.00 in0.0 mm
12:20 AM 26.6°F-3.0°C 16.4°F-8.7°C 65% 9.8 mph SE15.8 kmh SE 17.4 mph28.0 kmh 29.83 in1010.2 mb 0.00 in0.0 mm 0.00 in0.0 mm 0.00 in0.0 mm
12:15 AM 26.6°F-3.0°C 16.4°F-8.7°C 65% 11.4 mph SE18.3 kmh SE 17.4 mph28.0 kmh 29.83 in1010.2 mb 0.00 in0.0 mm 0.00 in0.0 mm 0.00 in0.0 mm
12:10 AM 26.6°F-3.0°C 16.4°F-8.7°C 65% 10.7 mph ESE17.2 kmh ESE 14.5 mph23.3 kmh 29.83 in1010.2 mb 0.00 in0.0 mm 0.00 in0.0 mm 0.00 in0.0 mm
12:05 AM 26.6°F-3.0°C 16.4°F-8.7°C 65% 10.7 mph ESE17.2 kmh ESE 13.0 mph20.9 kmh 29.83 in1010.2 mb 0.00 in0.0 mm 0.00 in0.0 mm 0.00 in0.0 mm
12:00 AM 26.6°F-3.0°C 16.4°F-8.7°C 65% 8.3 mph ESE13.4 kmh ESE 15.2 mph24.5 kmh 29.84 in1010.5 mb 0.00 in0.0 mm 0.00 in0.0 mm 0.00 in0.0 mm